createdAt,value
2023-04-12T00:01:26.944Z,4.63
2023-04-12T00:04:16.706Z,3.65
2023-04-12T00:07:06.160Z,4.25
2023-04-12T00:09:53.945Z,4.32
2023-04-12T00:12:42.324Z,3.75
2023-04-12T00:15:29.922Z,5.10
2023-04-12T00:18:17.552Z,4.20
2023-04-12T00:21:05.750Z,3.13
2023-04-12T00:23:53.432Z,3.20
2023-04-12T00:26:40.998Z,4.80
2023-04-12T00:29:30.189Z,3.10
2023-04-12T00:32:17.243Z,3.85
2023-04-12T00:35:04.983Z,3.47
2023-04-12T00:37:52.334Z,4.53
2023-04-12T00:40:42.741Z,5.78
2023-04-12T00:43:30.026Z,3.13
2023-04-12T00:46:20.570Z,3.72
2023-04-12T00:49:07.733Z,3.83
2023-04-12T00:51:55.416Z,2.92
2023-04-12T00:54:44.363Z,2.50
2023-04-12T00:57:36.637Z,3.47
2023-04-12T01:00:24.409Z,3.92
2023-04-12T01:03:13.920Z,3.30
2023-04-12T01:06:10.633Z,3.17
2023-04-12T01:09:04.820Z,3.60
2023-04-12T01:12:04.840Z,3.00
2023-04-12T01:15:03.359Z,3.47
2023-04-12T01:17:58.357Z,3.88
2023-04-12T01:20:54.765Z,3.97
2023-04-12T01:23:59.846Z,3.77
2023-04-12T01:26:50.195Z,3.25
2023-04-12T01:29:39.984Z,3.28
2023-04-12T01:32:28.150Z,3.65
2023-04-12T01:35:17.501Z,4.05
2023-04-12T01:38:06.769Z,4.03
2023-04-12T01:40:55.117Z,3.70
2023-04-12T01:43:42.990Z,4.07
2023-04-12T01:46:32.606Z,4.30
2023-04-12T01:49:21.682Z,4.50
2023-04-12T01:52:13.627Z,3.92
2023-04-12T01:55:06.096Z,3.47
2023-04-12T01:57:54.537Z,3.42
2023-04-12T02:00:43.041Z,3.28
2023-04-12T02:03:32.201Z,4.25
2023-04-12T02:06:21.149Z,3.30
2023-04-12T02:09:08.436Z,2.42
2023-04-12T02:11:56.631Z,3.50
2023-04-12T02:14:43.910Z,3.35
2023-04-12T02:17:31.384Z,2.80
2023-04-12T02:20:20.196Z,3.92
2023-04-12T02:23:07.300Z,3.45
2023-04-12T02:25:54.558Z,3.53
2023-04-12T02:28:41.456Z,3.00
2023-04-12T02:31:31.840Z,3.47
2023-04-12T02:34:19.487Z,4.20
2023-04-12T02:37:17.742Z,2.60
2023-04-12T02:40:06.934Z,2.67
2023-04-12T02:42:54.510Z,3.40
2023-04-12T02:45:43.520Z,3.13
2023-04-12T02:48:31.265Z,2.90
2023-04-12T02:51:19.079Z,2.88
2023-04-12T02:54:10.808Z,4.93
2023-04-12T02:57:11.659Z,4.45
2023-04-12T03:00:08.011Z,3.63
2023-04-12T03:03:04.707Z,3.85
2023-04-12T03:05:53.792Z,3.15
2023-04-12T03:08:41.120Z,3.88
2023-04-12T03:11:29.808Z,2.22
2023-04-12T03:14:18.430Z,4.33
2023-04-12T03:17:05.984Z,3.55
2023-04-12T03:19:55.623Z,3.63
2023-04-12T03:22:43.778Z,3.50
2023-04-12T03:25:30.693Z,4.13
2023-04-12T03:28:27.696Z,3.20
2023-04-12T03:31:15.572Z,2.80
2023-04-12T03:34:05.053Z,4.32
2023-04-12T03:36:52.175Z,3.33
2023-04-12T03:39:55.644Z,4.00
2023-04-12T03:42:45.174Z,3.97
2023-04-12T03:45:36.588Z,2.55
2023-04-12T03:48:24.611Z,3.05
2023-04-12T03:51:12.319Z,3.97
2023-04-12T03:54:04.645Z,3.42
2023-04-12T03:57:04.354Z,2.35
2023-04-12T03:59:58.418Z,3.85
2023-04-12T04:02:54.553Z,2.28
2023-04-12T04:05:42.744Z,3.30
2023-04-12T04:08:32.641Z,3.53
2023-04-12T04:11:19.846Z,3.03
2023-04-12T04:14:11.388Z,2.55
2023-04-12T04:16:58.804Z,3.00
2023-04-12T04:19:47.674Z,2.37
2023-04-12T04:22:34.903Z,3.08
2023-04-12T04:25:29.872Z,2.90
2023-04-12T04:28:20.509Z,2.53
2023-04-12T04:31:10.494Z,3.33
2023-04-12T04:34:01.605Z,2.65
2023-04-12T04:36:53.012Z,2.85
2023-04-12T04:39:46.700Z,2.42
2023-04-12T04:42:34.935Z,2.90
2023-04-12T04:45:26.690Z,2.65
2023-04-12T04:48:13.583Z,2.17
2023-04-12T04:51:02.765Z,1.70
2023-04-12T04:53:51.269Z,3.70
2023-04-12T04:56:38.650Z,1.50
2023-04-12T04:59:25.761Z,2.20
2023-04-12T05:02:18.210Z,2.15
2023-04-12T05:05:06.748Z,2.13
2023-04-12T05:07:53.867Z,1.53
2023-04-12T05:10:44.262Z,2.28
2023-04-12T05:13:32.204Z,2.40
2023-04-12T05:16:19.994Z,2.78
2023-04-12T05:19:07.383Z,2.20
2023-04-12T05:21:54.993Z,3.13
2023-04-12T05:24:41.985Z,2.67
2023-04-12T05:27:31.274Z,2.15
2023-04-12T05:30:20.040Z,3.08
2023-04-12T05:33:07.621Z,2.28
2023-04-12T05:35:57.841Z,1.70
2023-04-12T05:38:44.685Z,2.45
2023-04-12T05:41:33.333Z,2.72
2023-04-12T05:44:22.393Z,1.90
2023-04-12T05:47:10.137Z,2.97
2023-04-12T05:49:57.459Z,3.50
2023-04-12T05:52:44.887Z,2.83
2023-04-12T05:55:32.401Z,2.33
2023-04-12T05:58:20.688Z,4.13
2023-04-12T06:01:11.882Z,4.27
2023-04-12T06:03:59.835Z,3.97
2023-04-12T06:06:47.570Z,3.78
2023-04-12T06:09:35.270Z,3.90
2023-04-12T06:12:22.434Z,4.18
2023-04-12T06:15:10.132Z,4.75
2023-04-12T06:18:00.637Z,4.45
2023-04-12T06:20:47.852Z,4.00
2023-04-12T06:23:35.280Z,5.53
2023-04-12T06:26:22.735Z,5.18
2023-04-12T06:29:09.677Z,5.72
2023-04-12T06:31:57.041Z,4.07
2023-04-12T06:34:45.802Z,6.97
2023-04-12T06:37:35.171Z,6.28
2023-04-12T06:40:25.015Z,7.37
2023-04-12T06:43:13.461Z,9.13
2023-04-12T06:46:04.214Z,10.45
2023-04-12T06:48:51.880Z,9.77
2023-04-12T06:51:41.111Z,6.53
2023-04-12T06:54:28.645Z,9.13
2023-04-12T06:57:16.173Z,9.33
2023-04-12T07:00:04.201Z,10.18
2023-04-12T07:02:52.039Z,8.63
2023-04-12T07:05:40.316Z,8.48
2023-04-12T07:08:30.190Z,11.77
2023-04-12T07:11:20.914Z,7.95
2023-04-12T07:14:09.172Z,7.70
2023-04-12T07:16:57.298Z,7.90
2023-04-12T07:19:44.590Z,9.20
2023-04-12T07:22:32.354Z,10.88
2023-04-12T07:25:21.395Z,10.13
2023-04-12T07:28:09.438Z,9.60
2023-04-12T07:30:57.173Z,10.52
2023-04-12T07:33:44.207Z,8.27
2023-04-12T07:36:31.442Z,7.25
2023-04-12T07:39:18.990Z,7.23
2023-04-12T07:42:07.926Z,8.07
2023-04-12T07:44:55.735Z,7.10
2023-04-12T07:47:43.411Z,9.43
2023-04-12T07:50:31.211Z,9.02
2023-04-12T07:53:23.681Z,10.52
2023-04-12T07:56:11.482Z,7.85
2023-04-12T07:59:01.043Z,10.65
2023-04-12T08:01:48.535Z,8.52
2023-04-12T08:04:36.445Z,7.63
2023-04-12T08:07:24.172Z,8.80
2023-04-12T08:10:11.689Z,8.75
2023-04-12T08:12:59.657Z,6.72
2023-04-12T08:15:49.134Z,9.57
2023-04-12T08:18:37.176Z,9.27
2023-04-12T08:21:24.978Z,8.35
2023-04-12T08:24:13.132Z,10.60
2023-04-12T08:27:01.800Z,9.18
2023-04-12T08:29:49.378Z,10.10
2023-04-12T08:32:38.318Z,9.20
2023-04-12T08:35:26.121Z,9.50
2023-04-12T08:38:13.943Z,8.45
2023-04-12T08:41:03.747Z,11.25
2023-04-12T08:43:51.883Z,10.98
2023-04-12T08:46:39.522Z,10.20
2023-04-12T08:49:27.871Z,10.10
2023-04-12T08:52:15.704Z,10.90
2023-04-12T08:55:04.664Z,12.40
2023-04-12T08:57:56.467Z,10.18
2023-04-12T09:00:46.036Z,12.45
2023-04-12T09:03:34.737Z,16.77
2023-04-12T09:06:23.686Z,10.75
2023-04-12T09:09:10.907Z,15.05
2023-04-12T09:12:08.459Z,14.82
2023-04-12T09:15:12.984Z,12.43
2023-04-12T09:18:09.411Z,13.73
2023-04-12T09:21:11.981Z,13.10
2023-04-12T09:24:13.969Z,12.63
2023-04-12T09:27:07.033Z,14.80
2023-04-12T09:30:09.104Z,14.43
2023-04-12T09:32:57.021Z,14.73
2023-04-12T09:35:44.582Z,17.93
2023-04-12T09:38:32.864Z,12.65
2023-04-12T09:41:26.962Z,13.07
2023-04-12T09:44:30.590Z,16.48
2023-04-12T09:47:17.840Z,12.90
2023-04-12T09:50:08.044Z,14.77
2023-04-12T09:52:57.197Z,15.60
2023-04-12T09:55:45.536Z,13.77
2023-04-12T09:58:37.768Z,15.65
2023-04-12T10:01:26.316Z,12.40
2023-04-12T10:04:16.393Z,12.93
2023-04-12T10:07:05.503Z,13.02
2023-04-12T10:09:53.432Z,11.18
2023-04-12T10:12:42.277Z,12.40
2023-04-12T10:15:34.132Z,10.13
2023-04-12T10:18:27.280Z,11.33
2023-04-12T10:21:15.521Z,11.65
2023-04-12T10:24:03.561Z,12.65
2023-04-12T10:26:51.502Z,11.77
2023-04-12T10:29:40.078Z,11.43
2023-04-12T10:32:29.549Z,13.40
2023-04-12T10:35:20.540Z,10.20
2023-04-12T10:38:08.278Z,14.80
2023-04-12T10:41:15.804Z,12.02
2023-04-12T10:44:27.187Z,12.27
2023-04-12T10:47:15.112Z,10.20
2023-04-12T10:50:24.708Z,13.23
2023-04-12T10:53:28.059Z,11.38
2023-04-12T10:56:38.814Z,9.80
2023-04-12T10:59:34.385Z,10.40
2023-04-12T11:02:29.108Z,8.43
2023-04-12T11:05:20.007Z,7.75
2023-04-12T11:08:16.010Z,9.65
2023-04-12T11:11:20.946Z,11.93
2023-04-12T11:14:11.727Z,10.50
2023-04-12T11:17:27.633Z,11.75
2023-04-12T11:20:15.229Z,11.13
2023-04-12T11:23:02.575Z,11.73
2023-04-12T11:25:54.369Z,10.90
2023-04-12T11:28:42.098Z,13.07
2023-04-12T11:31:30.097Z,10.38
2023-04-12T11:34:18.940Z,10.85
2023-04-12T11:37:08.760Z,10.38
2023-04-12T11:39:59.546Z,11.95
2023-04-12T11:42:48.674Z,13.60
2023-04-12T11:45:37.166Z,10.68
2023-04-12T11:48:25.265Z,10.57
2023-04-12T11:51:25.036Z,11.73
2023-04-12T11:54:13.008Z,13.45
2023-04-12T11:57:01.531Z,10.48
2023-04-12T11:59:52.378Z,10.30
2023-04-12T12:02:49.362Z,8.00
2023-04-12T12:05:49.148Z,9.55
2023-04-12T12:08:43.261Z,7.85
2023-04-12T12:11:33.085Z,8.98
2023-04-12T12:14:21.207Z,8.47
2023-04-12T12:17:15.332Z,6.15
2023-04-12T12:20:04.947Z,6.97
2023-04-12T12:22:52.081Z,5.93
2023-04-12T12:25:39.068Z,6.00
2023-04-12T12:28:27.248Z,4.63
2023-04-12T12:31:15.892Z,3.33
2023-04-12T12:34:07.502Z,2.60
2023-04-12T12:36:57.485Z,3.42
2023-04-12T12:40:13.637Z,4.07
2023-04-12T12:43:01.930Z,3.17
2023-04-12T12:45:49.662Z,3.88
2023-04-12T12:48:41.071Z,3.93
2023-04-12T12:51:29.732Z,3.00
2023-04-12T12:54:36.065Z,5.38
2023-04-12T12:57:26.817Z,4.30
2023-04-12T13:00:16.423Z,4.70
2023-04-12T13:03:04.738Z,4.45
2023-04-12T13:05:52.674Z,3.70
2023-04-12T13:08:41.671Z,3.85
2023-04-12T13:11:29.765Z,3.72
2023-04-12T13:14:17.098Z,3.38
2023-04-12T13:17:03.900Z,2.25
2023-04-12T13:19:51.893Z,2.40
2023-04-12T13:22:40.491Z,2.97
2023-04-12T13:25:29.765Z,2.78
2023-04-12T13:28:18.015Z,3.03
2023-04-12T13:31:06.259Z,3.75
2023-04-12T13:33:53.610Z,2.57
2023-04-12T13:36:41.312Z,3.30
2023-04-12T13:39:29.551Z,2.85
2023-04-12T13:42:20.445Z,2.03
2023-04-12T13:45:11.289Z,2.58
2023-04-12T13:47:58.793Z,2.20
2023-04-12T13:50:47.307Z,2.30
2023-04-12T13:53:37.040Z,2.70
2023-04-12T13:56:24.781Z,3.08
2023-04-12T13:59:13.558Z,3.05
2023-04-12T14:02:02.991Z,2.10
2023-04-12T14:04:55.367Z,3.08
2023-04-12T14:07:43.354Z,1.73
2023-04-12T14:10:30.930Z,3.08
2023-04-12T14:13:18.143Z,2.85
2023-04-12T14:16:08.528Z,2.80
2023-04-12T14:18:56.143Z,3.33
2023-04-12T14:21:43.996Z,3.30
2023-04-12T14:24:31.398Z,2.90
2023-04-12T14:27:18.958Z,2.17
2023-04-12T14:30:08.539Z,3.47
2023-04-12T14:32:57.738Z,2.45
2023-04-12T14:35:45.738Z,2.70
2023-04-12T14:38:33.562Z,2.05
2023-04-12T14:41:21.307Z,1.80
2023-04-12T14:44:09.250Z,2.13
2023-04-12T14:46:56.285Z,2.42
2023-04-12T14:49:45.267Z,2.37
2023-04-12T14:52:32.448Z,3.03
2023-04-12T14:55:20.807Z,2.85
2023-04-12T14:58:08.533Z,3.33
2023-04-12T15:00:55.452Z,2.58
2023-04-12T15:03:44.346Z,2.38
2023-04-12T15:06:35.220Z,3.28
2023-04-12T15:09:23.367Z,4.18
2023-04-12T15:12:10.887Z,4.30
2023-04-12T15:14:58.825Z,3.65
2023-04-12T15:17:48.108Z,2.45
2023-04-12T15:20:36.121Z,4.38
2023-04-12T15:23:25.712Z,3.58
2023-04-12T15:26:14.286Z,4.13
2023-04-12T15:29:01.608Z,4.18
2023-04-12T15:31:49.069Z,3.35
2023-04-12T15:34:37.112Z,4.13
2023-04-12T15:37:24.517Z,4.13
2023-04-12T15:40:15.823Z,3.45
2023-04-12T15:43:03.685Z,4.43
2023-04-12T15:45:53.270Z,5.43
2023-04-12T15:48:41.669Z,3.63
2023-04-12T15:51:29.907Z,5.50
2023-04-12T15:54:17.540Z,3.60
2023-04-12T15:57:11.573Z,5.15
2023-04-12T15:59:59.596Z,3.93
2023-04-12T16:02:50.079Z,3.78
2023-04-12T16:05:38.110Z,3.37
2023-04-12T16:08:27.496Z,5.00
2023-04-12T16:11:15.235Z,4.45
2023-04-12T16:14:04.009Z,4.05
2023-04-12T16:16:51.603Z,4.53
2023-04-12T16:19:39.561Z,3.63
2023-04-12T16:22:27.835Z,4.25
2023-04-12T16:25:16.778Z,3.85
2023-04-12T16:28:05.521Z,4.32
2023-04-12T16:30:54.396Z,3.80
2023-04-12T16:33:43.930Z,4.45
2023-04-12T16:36:32.906Z,3.75
2023-04-12T16:39:20.353Z,5.47
2023-04-12T16:42:08.184Z,5.55
2023-04-12T16:44:56.316Z,4.60
2023-04-12T16:47:47.897Z,3.10
2023-04-12T16:50:35.969Z,2.90
2023-04-12T16:53:23.209Z,3.20
2023-04-12T16:56:10.321Z,3.08
2023-04-12T16:58:59.136Z,2.60
2023-04-12T17:01:47.256Z,3.00
2023-04-12T17:04:36.542Z,3.83
2023-04-12T17:07:24.547Z,3.88
2023-04-12T17:10:12.371Z,2.90
2023-04-12T17:13:00.121Z,4.47
2023-04-12T17:15:48.476Z,2.88
2023-04-12T17:18:37.028Z,3.03
2023-04-12T17:21:26.819Z,3.53
2023-04-12T17:24:15.455Z,4.03
2023-04-12T17:27:04.096Z,4.65
2023-04-12T17:29:51.689Z,3.17
2023-04-12T17:32:40.179Z,3.70
2023-04-12T17:35:28.114Z,3.95
2023-04-12T17:38:16.549Z,3.22
2023-04-12T17:41:04.529Z,2.08
2023-04-12T17:43:51.848Z,3.33
2023-04-12T17:46:39.464Z,2.28
2023-04-12T17:49:27.050Z,2.30
2023-04-12T17:52:18.413Z,2.00
2023-04-12T17:55:09.341Z,2.83
2023-04-12T17:57:58.270Z,2.90
2023-04-12T18:00:46.548Z,2.92
2023-04-12T18:03:34.387Z,3.40
2023-04-12T18:06:23.234Z,4.28
2023-04-12T18:09:11.570Z,2.42
2023-04-12T18:12:00.879Z,3.80
2023-04-12T18:14:48.742Z,3.58
2023-04-12T18:17:36.563Z,4.40
2023-04-12T18:20:24.352Z,4.25
2023-04-12T18:23:12.299Z,4.18
2023-04-12T18:25:59.484Z,4.85
2023-04-12T18:28:48.882Z,4.20
2023-04-12T18:31:39.407Z,4.75
2023-04-12T18:34:27.635Z,3.90
2023-04-12T18:37:15.571Z,3.92
2023-04-12T18:40:05.343Z,4.82
2023-04-12T18:42:52.899Z,2.90
2023-04-12T18:45:42.557Z,2.38
2023-04-12T18:48:31.541Z,3.92
2023-04-12T18:51:19.970Z,3.17
2023-04-12T18:54:09.985Z,5.30
2023-04-12T18:57:01.785Z,3.03
2023-04-12T18:59:49.158Z,3.42
2023-04-12T19:02:38.513Z,2.50
2023-04-12T19:05:26.356Z,4.28
2023-04-12T19:08:13.952Z,3.92
2023-04-12T19:11:01.892Z,4.13
2023-04-12T19:13:49.735Z,4.07
2023-04-12T19:16:37.795Z,3.08
2023-04-12T19:19:26.216Z,3.88
2023-04-12T19:22:13.945Z,3.83
2023-04-12T19:25:02.514Z,5.93
2023-04-12T19:27:50.055Z,4.07
2023-04-12T19:30:37.762Z,3.80
2023-04-12T19:33:25.828Z,4.10
2023-04-12T19:36:15.433Z,3.45
2023-04-12T19:39:02.803Z,4.13
2023-04-12T19:41:51.769Z,3.60
2023-04-12T19:44:40.843Z,4.47
2023-04-12T19:47:29.137Z,4.20
2023-04-12T19:50:17.844Z,4.15
2023-04-12T19:53:07.937Z,3.47
2023-04-12T19:55:58.322Z,4.07
2023-04-12T19:58:45.957Z,4.20
2023-04-12T20:01:34.048Z,3.50
2023-04-12T20:04:24.305Z,3.85
2023-04-12T20:07:11.627Z,3.45
2023-04-12T20:10:01.178Z,3.15
2023-04-12T20:12:49.034Z,3.47
2023-04-12T20:15:37.418Z,5.03
2023-04-12T20:18:26.337Z,3.35
2023-04-12T20:21:13.252Z,3.58
2023-04-12T20:24:02.016Z,5.07
2023-04-12T20:26:51.587Z,4.80
2023-04-12T20:29:39.628Z,3.78
2023-04-12T20:32:27.535Z,2.80
2023-04-12T20:35:15.411Z,3.70
2023-04-12T20:38:02.833Z,2.90
2023-04-12T20:40:51.390Z,3.45
2023-04-12T20:43:46.084Z,4.23
2023-04-12T20:46:36.743Z,3.45
2023-04-12T20:49:27.934Z,2.92
2023-04-12T20:52:18.765Z,5.15
2023-04-12T20:55:07.458Z,2.08
2023-04-12T20:57:55.992Z,2.70
2023-04-12T21:00:46.831Z,1.55
2023-04-12T21:03:35.718Z,1.52
2023-04-12T21:06:23.411Z,1.55
2023-04-12T21:09:11.070Z,3.10
2023-04-12T21:12:02.678Z,2.10
2023-04-12T21:14:51.139Z,2.13
2023-04-12T21:17:40.882Z,2.85
2023-04-12T21:20:30.600Z,4.03
2023-04-12T21:23:19.238Z,2.10
2023-04-12T21:26:07.281Z,2.03
2023-04-12T21:28:54.905Z,1.57
2023-04-12T21:31:42.860Z,3.90
2023-04-12T21:34:32.738Z,4.27
2023-04-12T21:37:22.207Z,3.00
2023-04-12T21:40:10.992Z,3.33
2023-04-12T21:42:58.703Z,3.20
2023-04-12T21:45:46.345Z,3.00
2023-04-12T21:48:33.966Z,4.15
2023-04-12T21:51:24.818Z,3.20
2023-04-12T21:54:12.306Z,3.63
2023-04-12T21:57:00.105Z,4.22
2023-04-12T21:59:47.777Z,2.65
2023-04-12T22:02:35.476Z,3.40
2023-04-12T22:05:23.572Z,3.55
2023-04-12T22:08:12.603Z,3.70
2023-04-12T22:11:00.606Z,6.00
2023-04-12T22:13:48.191Z,3.22
2023-04-12T22:16:35.956Z,4.70
2023-04-12T22:19:23.475Z,4.03
2023-04-12T22:22:11.541Z,3.58
2023-04-12T22:25:00.878Z,4.72
2023-04-12T22:27:48.786Z,3.70
2023-04-12T22:30:37.080Z,5.00
2023-04-12T22:33:24.561Z,3.80
2023-04-12T22:36:14.142Z,3.78
2023-04-12T22:39:01.588Z,3.72
2023-04-12T22:41:53.196Z,4.72
2023-04-12T22:44:40.727Z,4.70
2023-04-12T22:47:28.305Z,3.00
2023-04-12T22:50:15.820Z,4.43
2023-04-12T22:53:03.110Z,4.35
2023-04-12T22:55:53.920Z,4.35
2023-04-12T22:58:43.192Z,4.40
2023-04-12T23:01:31.260Z,3.33
2023-04-12T23:04:19.390Z,3.58
2023-04-12T23:07:07.749Z,4.03
2023-04-12T23:09:56.165Z,4.15
2023-04-12T23:12:43.487Z,4.35
2023-04-12T23:15:32.448Z,3.50
2023-04-12T23:18:19.975Z,2.53
2023-04-12T23:21:07.606Z,5.00
2023-04-12T23:23:56.421Z,4.53
2023-04-12T23:26:45.306Z,3.92
2023-04-12T23:29:35.159Z,5.18
2023-04-12T23:32:24.413Z,4.53
2023-04-12T23:35:14.711Z,3.53
2023-04-12T23:38:02.885Z,5.35
2023-04-12T23:40:53.912Z,5.72
2023-04-12T23:43:41.993Z,4.38
2023-04-12T23:46:29.332Z,5.47
2023-04-12T23:49:18.163Z,6.78
2023-04-12T23:52:05.971Z,4.47
2023-04-12T23:54:53.728Z,5.90
2023-04-12T23:57:42.284Z,5.38
